createdAt,value
2019-03-31T00:01:43.286Z,10.45
2019-03-31T00:04:11.776Z,10.40
2019-03-31T00:06:40.229Z,10.98
2019-03-31T00:09:08.934Z,12.40
2019-03-31T00:11:37.518Z,12.25
2019-03-31T00:14:06.017Z,10.30
2019-03-31T00:16:34.545Z,11.60
2019-03-31T00:19:02.978Z,10.23
2019-03-31T00:21:31.430Z,11.65
2019-03-31T00:23:59.922Z,10.65
2019-03-31T00:26:28.395Z,10.50
2019-03-31T00:28:56.805Z,10.65
2019-03-31T00:31:25.279Z,10.48
2019-03-31T00:33:53.747Z,11.40
2019-03-31T00:36:22.280Z,11.80
2019-03-31T00:38:50.674Z,11.18
2019-03-31T00:41:19.151Z,10.53
2019-03-31T00:43:47.543Z,9.93
2019-03-31T00:46:16.013Z,9.03
2019-03-31T00:48:44.419Z,10.23
2019-03-31T00:51:12.970Z,8.60
2019-03-31T00:53:41.357Z,8.93
2019-03-31T00:56:09.832Z,7.20
2019-03-31T00:58:38.240Z,9.35
2019-03-31T01:01:08.747Z,12.35
2019-03-31T01:03:37.229Z,10.65
2019-03-31T01:06:05.967Z,11.10
2019-03-31T01:08:35.506Z,10.72
2019-03-31T01:11:07.987Z,8.30
2019-03-31T01:13:36.543Z,7.92
2019-03-31T01:16:05.042Z,8.10
2019-03-31T01:18:34.027Z,9.08
2019-03-31T01:21:02.433Z,10.58
2019-03-31T01:23:30.876Z,9.93
2019-03-31T01:26:00.624Z,9.25
2019-03-31T01:28:29.127Z,11.38
2019-03-31T01:30:57.622Z,13.08
2019-03-31T01:33:26.559Z,10.72
2019-03-31T01:35:55.311Z,11.28
2019-03-31T01:38:23.824Z,9.45
2019-03-31T01:40:52.473Z,8.00
2019-03-31T01:43:21.125Z,9.93
2019-03-31T01:45:49.703Z,6.92
2019-03-31T01:48:18.213Z,8.90
2019-03-31T01:50:46.897Z,7.47
2019-03-31T01:53:15.340Z,9.10
2019-03-31T01:55:43.766Z,9.18
2019-03-31T01:58:12.272Z,7.58
2019-03-31T02:00:42.372Z,8.70
2019-03-31T02:03:10.801Z,9.63
2019-03-31T02:05:39.376Z,7.83
2019-03-31T02:08:08.250Z,7.70
2019-03-31T02:10:36.672Z,8.03
2019-03-31T02:13:05.314Z,7.90
2019-03-31T02:15:33.882Z,9.28
2019-03-31T02:18:02.307Z,13.53
2019-03-31T02:20:30.737Z,8.50
2019-03-31T02:22:59.158Z,9.05
2019-03-31T02:25:27.636Z,7.35
2019-03-31T02:27:56.064Z,6.53
2019-03-31T02:30:24.588Z,7.28
2019-03-31T02:32:53.005Z,7.78
2019-03-31T02:35:21.425Z,8.00
2019-03-31T02:37:49.834Z,7.20
2019-03-31T02:40:18.310Z,7.75
2019-03-31T02:42:48.265Z,6.53
2019-03-31T02:45:16.699Z,6.35
2019-03-31T02:47:45.101Z,7.37
2019-03-31T02:50:16.609Z,11.53
2019-03-31T02:52:45.104Z,10.50
2019-03-31T02:55:13.612Z,7.05
2019-03-31T02:57:43.225Z,7.97
2019-03-31T03:00:11.832Z,7.00
2019-03-31T03:02:42.633Z,7.00
2019-03-31T03:05:19.799Z,8.75
2019-03-31T03:07:44.096Z,10.48
2019-03-31T03:10:12.609Z,7.25
2019-03-31T03:12:42.979Z,6.90
2019-03-31T03:15:11.581Z,7.53
2019-03-31T03:17:40.021Z,8.48
2019-03-31T03:20:08.774Z,6.95
2019-03-31T03:22:37.220Z,9.20
2019-03-31T03:25:05.714Z,9.65
2019-03-31T03:27:34.170Z,10.35
2019-03-31T03:30:02.811Z,9.25
2019-03-31T03:32:31.254Z,8.20
2019-03-31T03:34:59.686Z,9.85
2019-03-31T03:37:28.201Z,9.00
2019-03-31T03:39:56.603Z,8.93
2019-03-31T03:42:25.052Z,9.03
2019-03-31T03:44:53.502Z,7.90
2019-03-31T03:47:21.966Z,9.23
2019-03-31T03:49:52.028Z,7.78
2019-03-31T03:52:20.546Z,9.40
2019-03-31T03:54:48.952Z,8.25
2019-03-31T03:57:17.408Z,9.23
2019-03-31T03:59:45.822Z,7.50
2019-03-31T04:02:14.281Z,10.25
2019-03-31T04:04:42.707Z,6.70
2019-03-31T04:07:11.129Z,7.80
2019-03-31T04:09:39.556Z,7.45
2019-03-31T04:12:07.988Z,9.30
2019-03-31T04:14:36.447Z,7.50
2019-03-31T04:17:04.882Z,7.92
2019-03-31T04:19:33.469Z,8.15
2019-03-31T04:22:01.906Z,9.50
2019-03-31T04:24:31.956Z,8.58
2019-03-31T04:27:00.402Z,7.75
2019-03-31T04:29:28.911Z,11.25
2019-03-31T04:31:57.436Z,7.45
2019-03-31T04:34:25.974Z,7.53
2019-03-31T04:36:54.473Z,8.60
2019-03-31T04:39:22.910Z,10.55
2019-03-31T04:41:51.318Z,8.70
2019-03-31T04:44:19.747Z,8.40
2019-03-31T04:46:48.167Z,7.55
2019-03-31T04:49:16.594Z,7.87
2019-03-31T04:51:45.071Z,8.50
2019-03-31T04:54:13.505Z,6.15
2019-03-31T04:56:41.926Z,7.12
2019-03-31T04:59:10.357Z,7.72
2019-03-31T05:01:38.782Z,6.17
2019-03-31T05:04:07.216Z,7.47
2019-03-31T05:06:35.626Z,6.85
2019-03-31T05:09:05.418Z,8.28
2019-03-31T05:11:34.351Z,8.45
2019-03-31T05:14:02.784Z,9.05
2019-03-31T05:16:31.207Z,10.25
2019-03-31T05:18:59.636Z,7.80
2019-03-31T05:21:28.046Z,8.13
2019-03-31T05:23:56.496Z,8.45
2019-03-31T05:26:24.990Z,9.88
2019-03-31T05:28:53.404Z,12.55
2019-03-31T05:31:21.858Z,13.18
2019-03-31T05:33:50.277Z,13.53
2019-03-31T05:36:18.696Z,9.88
2019-03-31T05:38:47.161Z,7.83
2019-03-31T05:41:15.570Z,8.45
2019-03-31T05:43:43.980Z,6.62
2019-03-31T05:46:12.423Z,7.50
2019-03-31T05:48:40.828Z,8.73
2019-03-31T05:51:09.250Z,8.80
2019-03-31T05:53:37.675Z,9.28
2019-03-31T05:56:06.113Z,9.50
2019-03-31T05:58:36.077Z,10.25
2019-03-31T06:01:04.500Z,8.70
2019-03-31T06:03:32.920Z,7.58
2019-03-31T06:06:01.338Z,7.37
2019-03-31T06:08:29.748Z,9.70
2019-03-31T06:10:58.173Z,7.12
2019-03-31T06:13:26.589Z,8.35
2019-03-31T06:15:55.096Z,8.98
2019-03-31T06:18:23.522Z,8.40
2019-03-31T06:20:51.954Z,7.90
2019-03-31T06:23:20.395Z,8.50
2019-03-31T06:25:48.905Z,8.88
2019-03-31T06:28:17.324Z,7.80
2019-03-31T06:30:45.782Z,9.48
2019-03-31T06:33:14.193Z,11.08
2019-03-31T06:35:42.660Z,9.05
2019-03-31T06:38:11.061Z,9.15
2019-03-31T06:40:40.570Z,7.87
2019-03-31T06:43:09.009Z,10.48
2019-03-31T06:45:37.420Z,8.85
2019-03-31T06:48:05.942Z,10.30
2019-03-31T06:50:34.563Z,12.18
2019-03-31T06:53:02.980Z,7.85
2019-03-31T06:55:31.430Z,8.20
2019-03-31T06:57:59.969Z,8.80
2019-03-31T07:00:28.697Z,7.55
2019-03-31T07:02:57.285Z,9.45
2019-03-31T07:05:25.692Z,12.55
2019-03-31T07:07:55.573Z,13.13
2019-03-31T07:10:23.987Z,13.70
2019-03-31T07:12:52.434Z,13.18
2019-03-31T07:15:20.852Z,14.25
2019-03-31T07:17:49.298Z,10.48
2019-03-31T07:20:17.953Z,8.33
2019-03-31T07:22:46.398Z,10.82
2019-03-31T07:25:15.669Z,10.88
2019-03-31T07:27:44.199Z,12.30
2019-03-31T07:30:18.273Z,11.10
2019-03-31T07:32:46.685Z,10.85
2019-03-31T07:35:18.780Z,11.70
2019-03-31T07:37:47.540Z,18.02
2019-03-31T07:40:18.271Z,14.80
2019-03-31T07:42:47.042Z,20.23
2019-03-31T07:45:16.359Z,20.45
2019-03-31T07:47:45.205Z,14.35
2019-03-31T07:50:16.388Z,15.68
2019-03-31T07:52:44.878Z,9.73
2019-03-31T07:55:13.786Z,15.83
2019-03-31T07:57:42.510Z,11.63
2019-03-31T08:00:14.737Z,14.40
2019-03-31T08:02:43.216Z,10.55
2019-03-31T08:05:11.901Z,12.07
2019-03-31T08:07:40.422Z,12.93
2019-03-31T08:10:10.589Z,12.90
2019-03-31T08:12:39.069Z,9.05
2019-03-31T08:15:09.158Z,11.68
2019-03-31T08:17:38.798Z,11.03
2019-03-31T08:20:10.072Z,12.05
2019-03-31T08:22:38.513Z,13.90
2019-03-31T08:25:07.583Z,9.78
2019-03-31T08:27:36.062Z,11.25
2019-03-31T08:30:07.572Z,10.23
2019-03-31T08:32:36.080Z,12.98
2019-03-31T08:35:09.009Z,10.85
2019-03-31T08:40:28.414Z,13.70
2019-03-31T08:54:03.953Z,14.45
2019-03-31T08:59:12.660Z,14.35
2019-03-31T09:04:32.797Z,15.45
2019-03-31T09:12:48.995Z,20.55
2019-03-31T09:21:22.063Z,22.98
2019-03-31T09:29:43.727Z,25.45
2019-03-31T09:34:39.833Z,27.87
2019-03-31T09:37:09.705Z,31.37
2019-03-31T09:45:37.951Z,29.65
2019-03-31T09:51:04.745Z,31.90
2019-03-31T09:59:17.526Z,31.42
2019-03-31T10:01:46.619Z,35.13
2019-03-31T10:04:21.570Z,35.65
2019-03-31T10:09:54.217Z,30.50
2019-03-31T10:18:18.089Z,25.15
2019-03-31T10:35:53.156Z,20.25
2019-03-31T10:41:32.381Z,21.23
2019-03-31T10:44:02.251Z,21.20
2019-03-31T10:49:40.552Z,23.95
2019-03-31T10:55:08.618Z,18.93
2019-03-31T10:57:42.735Z,22.07
2019-03-31T11:00:15.592Z,23.73
2019-03-31T11:05:36.626Z,25.30
2019-03-31T11:11:18.450Z,25.40
2019-03-31T11:16:53.248Z,26.45
2019-03-31T11:25:36.647Z,24.75
2019-03-31T11:28:13.643Z,25.50
2019-03-31T11:30:45.019Z,24.15
2019-03-31T11:33:19.968Z,21.82
2019-03-31T11:35:48.582Z,18.20
2019-03-31T11:38:18.728Z,20.27
2019-03-31T11:40:48.724Z,19.73
2019-03-31T11:43:20.170Z,21.77
2019-03-31T11:46:04.592Z,18.50
2019-03-31T11:48:41.611Z,18.73
2019-03-31T11:51:19.168Z,17.57
2019-03-31T11:53:56.023Z,23.02
2019-03-31T11:59:43.696Z,22.32
2019-03-31T12:01:53.270Z,20.00
2019-03-31T12:07:28.331Z,16.25
2019-03-31T12:09:55.642Z,17.57
2019-03-31T12:12:25.666Z,19.95
2019-03-31T12:15:08.982Z,15.32
2019-03-31T12:20:32.674Z,16.20
2019-03-31T12:25:58.461Z,12.82
2019-03-31T12:28:26.990Z,13.72
2019-03-31T12:31:06.320Z,13.55
2019-03-31T12:33:48.510Z,13.78
2019-03-31T12:36:18.898Z,11.10
2019-03-31T12:38:49.432Z,11.63
2019-03-31T12:41:18.128Z,14.60
2019-03-31T12:43:46.631Z,12.55
2019-03-31T12:46:15.172Z,11.35
2019-03-31T12:48:43.695Z,13.20
2019-03-31T12:51:12.646Z,9.90
2019-03-31T12:53:41.107Z,11.80
2019-03-31T12:56:09.529Z,11.73
2019-03-31T12:58:37.972Z,10.65
2019-03-31T13:04:14.893Z,9.35
2019-03-31T13:06:44.236Z,11.35
2019-03-31T13:09:14.615Z,13.40
2019-03-31T13:14:46.721Z,8.73
2019-03-31T13:17:23.459Z,8.70
2019-03-31T13:19:51.913Z,8.25
2019-03-31T13:22:20.359Z,8.45
2019-03-31T13:25:18.067Z,10.55
2019-03-31T13:30:16.645Z,6.42
2019-03-31T13:33:01.174Z,7.00
2019-03-31T13:38:20.392Z,7.50
2019-03-31T13:40:50.464Z,6.70
2019-03-31T13:43:18.958Z,7.00
2019-03-31T13:51:35.350Z,6.75
2019-03-31T13:54:07.229Z,6.65
2019-03-31T13:56:36.458Z,10.10
2019-03-31T14:02:02.985Z,10.95
2019-03-31T14:04:36.994Z,9.73
2019-03-31T14:07:06.902Z,8.85
2019-03-31T14:09:35.690Z,9.00
2019-03-31T14:12:04.220Z,7.55
2019-03-31T14:14:35.299Z,8.08
2019-03-31T14:17:04.740Z,8.93
2019-03-31T14:19:33.232Z,6.22
2019-03-31T14:25:01.256Z,7.67
2019-03-31T14:27:29.722Z,6.20
2019-03-31T14:30:12.703Z,5.92
2019-03-31T14:35:40.058Z,6.17
2019-03-31T14:38:10.627Z,9.75
2019-03-31T14:40:42.744Z,7.28
2019-03-31T14:43:11.324Z,5.87
2019-03-31T14:45:39.798Z,5.75
2019-03-31T14:48:08.226Z,5.85
2019-03-31T14:50:37.639Z,7.87
2019-03-31T14:53:23.278Z,7.08
2019-03-31T14:55:53.445Z,5.40
2019-03-31T14:58:33.495Z,6.75
2019-03-31T15:03:56.186Z,7.67
2019-03-31T15:06:24.826Z,5.62
2019-03-31T15:11:51.052Z,5.87
2019-03-31T15:17:06.413Z,7.40
2019-03-31T15:19:38.360Z,6.60
2019-03-31T15:25:01.198Z,10.88
2019-03-31T15:27:29.630Z,7.55
2019-03-31T15:29:58.149Z,7.55
2019-03-31T15:32:26.679Z,7.97
2019-03-31T15:34:56.692Z,10.58
2019-03-31T15:37:25.218Z,6.22
2019-03-31T15:39:55.502Z,11.65
2019-03-31T15:42:24.099Z,5.80
2019-03-31T15:47:42.219Z,5.70
2019-03-31T15:50:12.165Z,9.65
2019-03-31T15:52:43.041Z,5.70
2019-03-31T15:57:52.048Z,4.97
2019-03-31T16:03:13.375Z,8.85
2019-03-31T16:08:34.051Z,5.15
2019-03-31T16:13:51.860Z,6.00
2019-03-31T16:19:08.209Z,8.13
2019-03-31T16:21:38.248Z,8.75
2019-03-31T16:24:06.899Z,10.65
2019-03-31T16:29:39.611Z,8.55
2019-03-31T16:32:13.869Z,6.58
2019-03-31T16:34:50.439Z,7.10
2019-03-31T16:37:18.888Z,6.05
2019-03-31T16:39:47.335Z,4.90
2019-03-31T16:42:16.150Z,6.50
2019-03-31T16:47:38.829Z,5.23
2019-03-31T16:50:11.387Z,4.50
2019-03-31T16:52:40.368Z,5.37
2019-03-31T16:55:09.874Z,4.50
2019-03-31T16:57:38.326Z,4.97
2019-03-31T17:00:07.795Z,4.95
2019-03-31T17:02:36.258Z,8.23
2019-03-31T17:05:20.778Z,5.87
2019-03-31T17:07:36.599Z,5.42
2019-03-31T17:10:07.341Z,5.45
2019-03-31T17:12:35.829Z,5.17
2019-03-31T17:15:06.426Z,4.87
2019-03-31T17:17:35.184Z,8.33
2019-03-31T17:20:05.616Z,7.15
2019-03-31T17:22:34.145Z,11.83
2019-03-31T17:25:02.784Z,16.15
2019-03-31T17:27:31.711Z,13.88
2019-03-31T17:30:00.385Z,13.65
2019-03-31T17:32:28.922Z,12.88
2019-03-31T17:34:58.256Z,12.03
2019-03-31T17:37:26.681Z,19.65
2019-03-31T17:40:05.932Z,11.93
2019-03-31T17:42:25.721Z,11.08
2019-03-31T17:44:54.277Z,21.12
2019-03-31T17:47:22.681Z,17.73
2019-03-31T17:49:51.149Z,18.70
2019-03-31T17:52:19.875Z,11.40
2019-03-31T17:54:48.321Z,9.65
2019-03-31T17:57:16.911Z,7.90
2019-03-31T17:59:45.359Z,7.10
2019-03-31T18:02:13.809Z,8.98
2019-03-31T18:04:42.338Z,8.65
2019-03-31T18:07:10.816Z,9.63
2019-03-31T18:09:39.318Z,7.60
2019-03-31T18:12:07.806Z,12.50
2019-03-31T18:14:36.232Z,9.75
2019-03-31T18:17:04.766Z,10.23
2019-03-31T18:19:33.374Z,8.08
2019-03-31T18:22:15.531Z,7.65
2019-03-31T18:24:31.990Z,8.18
2019-03-31T18:27:00.468Z,7.47
2019-03-31T18:29:34.966Z,8.83
2019-03-31T18:32:05.032Z,10.40
2019-03-31T18:34:33.537Z,8.53
2019-03-31T18:37:01.985Z,9.55
2019-03-31T18:39:30.446Z,10.53
2019-03-31T18:41:58.949Z,7.75
2019-03-31T18:44:27.962Z,10.72
2019-03-31T18:46:56.522Z,10.93
2019-03-31T18:49:25.090Z,12.75
2019-03-31T18:51:53.622Z,11.08
2019-03-31T18:54:29.636Z,8.55
2019-03-31T18:56:59.815Z,6.67
2019-03-31T18:59:39.538Z,7.17
2019-03-31T19:02:15.356Z,6.83
2019-03-31T19:04:54.213Z,5.95
2019-03-31T19:07:26.992Z,5.58
2019-03-31T19:10:23.991Z,6.55
2019-03-31T19:12:52.931Z,9.85
2019-03-31T19:15:35.214Z,7.95
2019-03-31T19:18:11.268Z,16.57
2019-03-31T19:20:41.859Z,7.78
2019-03-31T19:23:29.164Z,8.00
2019-03-31T19:25:59.271Z,9.35
2019-03-31T19:28:33.551Z,11.20
2019-03-31T19:33:51.633Z,6.83
2019-03-31T19:41:56.994Z,9.08
2019-03-31T19:44:45.332Z,9.23
2019-03-31T19:47:15.455Z,12.85
2019-03-31T19:50:01.990Z,13.70
2019-03-31T19:52:34.356Z,9.83
2019-03-31T19:55:04.596Z,8.13
2019-03-31T19:57:46.601Z,9.00
2019-03-31T20:00:19.896Z,7.72
2019-03-31T20:03:06.011Z,9.30
2019-03-31T20:05:36.130Z,8.78
2019-03-31T20:11:19.491Z,10.10
2019-03-31T20:13:54.366Z,10.63
2019-03-31T20:16:33.565Z,8.85
2019-03-31T20:19:26.477Z,12.95
2019-03-31T20:21:56.556Z,12.00
2019-03-31T20:24:28.314Z,8.05
2019-03-31T20:26:59.992Z,9.48
2019-03-31T20:29:38.426Z,9.63
2019-03-31T20:32:24.549Z,7.67
2019-03-31T20:35:14.693Z,9.10
2019-03-31T20:38:00.129Z,10.70
2019-03-31T20:43:24.968Z,9.15
2019-03-31T20:45:56.485Z,8.85
2019-03-31T20:48:33.053Z,12.05
2019-03-31T20:51:02.588Z,10.40
2019-03-31T20:53:31.060Z,7.30
2019-03-31T20:56:02.567Z,10.15
2019-03-31T20:58:31.105Z,8.35
2019-03-31T21:00:59.657Z,9.93
2019-03-31T21:03:31.941Z,10.55
2019-03-31T21:06:00.394Z,9.50
2019-03-31T21:08:28.960Z,11.35
2019-03-31T21:13:47.553Z,10.28
2019-03-31T21:16:16.030Z,12.60
2019-03-31T21:18:47.487Z,10.30
2019-03-31T21:21:15.959Z,11.48
2019-03-31T21:23:44.611Z,11.20
2019-03-31T21:26:13.244Z,9.93
2019-03-31T21:28:49.465Z,9.08
2019-03-31T21:31:22.622Z,10.05
2019-03-31T21:36:18.417Z,10.40
2019-03-31T21:38:46.863Z,9.48
2019-03-31T21:44:12.981Z,7.90
2019-03-31T21:46:50.921Z,9.58
2019-03-31T21:49:21.011Z,10.23
2019-03-31T21:51:49.768Z,11.48
2019-03-31T21:54:32.532Z,8.68
2019-03-31T21:57:04.221Z,11.73
2019-03-31T21:59:36.726Z,9.28
2019-03-31T22:02:07.019Z,10.63
2019-03-31T22:04:38.509Z,9.23
2019-03-31T22:07:11.010Z,12.55
2019-03-31T22:09:39.514Z,15.13
2019-03-31T22:12:07.939Z,13.55
2019-03-31T22:14:36.399Z,26.82
2019-03-31T22:17:04.839Z,10.75
2019-03-31T22:19:33.668Z,12.98
2019-03-31T22:22:02.118Z,10.88
2019-03-31T22:24:30.772Z,10.85
2019-03-31T22:26:59.193Z,10.38
2019-03-31T22:29:27.614Z,14.60
2019-03-31T22:31:56.019Z,11.97
2019-03-31T22:34:24.465Z,15.08
2019-03-31T22:36:52.883Z,12.95
2019-03-31T22:39:21.615Z,12.05
2019-03-31T22:41:53.362Z,11.45
2019-03-31T22:44:21.436Z,13.25
2019-03-31T22:46:54.328Z,11.18
2019-03-31T22:49:20.110Z,46.68
2019-03-31T22:51:53.727Z,20.60
2019-03-31T22:54:22.758Z,14.83
2019-03-31T22:56:52.753Z,23.05
2019-03-31T22:59:21.159Z,14.85
2019-03-31T23:01:49.584Z,12.23
2019-03-31T23:04:20.035Z,13.20
2019-03-31T23:07:06.385Z,19.10
2019-03-31T23:09:36.993Z,32.25
2019-03-31T23:12:18.562Z,12.70
2019-03-31T23:14:50.415Z,97.85
2019-03-31T23:17:21.170Z,82.57
2019-03-31T23:19:49.645Z,30.27
2019-03-31T23:22:31.820Z,24.75
2019-03-31T23:25:06.252Z,50.30
2019-03-31T23:27:34.383Z,42.30
2019-03-31T23:30:23.441Z,34.38
2019-03-31T23:35:47.409Z,12.78
2019-03-31T23:38:15.821Z,15.15
2019-03-31T23:40:44.314Z,14.28
2019-03-31T23:43:12.786Z,15.35
2019-03-31T23:45:41.279Z,13.18
2019-03-31T23:48:09.696Z,12.90
2019-03-31T23:50:38.166Z,17.87
2019-03-31T23:53:06.722Z,15.40
2019-03-31T23:55:41.417Z,15.75
2019-03-31T23:58:13.720Z,15.98
